createdAt,value
2019-05-25T00:00:57.726Z,7.28
2019-05-25T00:03:26.453Z,7.67
2019-05-25T00:05:55.169Z,7.92
2019-05-25T00:08:23.897Z,8.10
2019-05-25T00:10:52.644Z,7.92
2019-05-25T00:13:21.361Z,7.80
2019-05-25T00:15:50.080Z,7.85
2019-05-25T00:18:18.811Z,7.95
2019-05-25T00:20:47.540Z,7.47
2019-05-25T00:23:16.272Z,6.97
2019-05-25T00:25:44.999Z,6.80
2019-05-25T00:28:13.744Z,7.28
2019-05-25T00:30:42.448Z,6.33
2019-05-25T00:33:11.159Z,6.87
2019-05-25T00:35:39.967Z,6.92
2019-05-25T00:38:08.687Z,7.33
2019-05-25T00:40:37.484Z,7.10
2019-05-25T00:43:06.248Z,6.72
2019-05-25T00:45:34.974Z,6.72
2019-05-25T00:48:03.705Z,6.40
2019-05-25T00:50:32.469Z,6.35
2019-05-25T00:53:01.198Z,6.60
2019-05-25T00:55:29.923Z,6.95
2019-05-25T00:57:58.676Z,6.40
2019-05-25T01:00:27.429Z,6.37
2019-05-25T01:02:56.157Z,6.85
2019-05-25T01:05:24.884Z,6.47
2019-05-25T01:07:53.601Z,6.28
2019-05-25T01:10:22.327Z,6.70
2019-05-25T01:12:51.052Z,6.92
2019-05-25T01:15:20.174Z,7.03
2019-05-25T01:17:48.892Z,7.22
2019-05-25T01:20:18.190Z,6.65
2019-05-25T01:22:46.859Z,7.08
2019-05-25T01:25:18.471Z,7.10
2019-05-25T01:27:47.193Z,7.20
2019-05-25T01:30:16.326Z,7.05
2019-05-25T01:32:45.058Z,7.65
2019-05-25T01:35:13.909Z,7.37
2019-05-25T01:37:42.633Z,7.47
2019-05-25T01:40:12.860Z,8.83
2019-05-25T01:42:41.597Z,8.33
2019-05-25T01:45:10.609Z,8.40
2019-05-25T01:47:39.325Z,8.15
2019-05-25T01:50:08.270Z,8.45
2019-05-25T01:52:36.980Z,8.10
2019-05-25T01:55:06.892Z,7.83
2019-05-25T01:57:35.668Z,7.95
2019-05-25T02:00:07.152Z,7.80
2019-05-25T02:02:35.984Z,6.85
2019-05-25T02:05:07.007Z,6.30
2019-05-25T02:07:35.734Z,6.95
2019-05-25T02:10:07.397Z,6.42
2019-05-25T02:15:07.453Z,6.85
2019-05-25T02:17:36.194Z,6.87
2019-05-25T02:20:09.506Z,6.67
2019-05-25T02:22:38.284Z,6.28
2019-05-25T02:25:17.796Z,5.95
2019-05-25T02:30:08.034Z,6.70
2019-05-25T02:32:36.776Z,7.00
2019-05-25T02:35:08.140Z,6.95
2019-05-25T02:37:36.860Z,7.67
2019-05-25T02:40:09.005Z,7.20
2019-05-25T02:42:37.830Z,8.65
2019-05-25T02:45:07.471Z,8.65
2019-05-25T02:47:36.187Z,7.85
2019-05-25T02:50:07.150Z,9.53
2019-05-25T02:52:35.870Z,9.25
2019-05-25T02:55:06.469Z,9.80
2019-05-25T02:57:35.190Z,8.60
2019-05-25T03:00:06.760Z,8.60
2019-05-25T03:02:35.522Z,8.33
2019-05-25T03:05:09.208Z,8.48
2019-05-25T03:07:40.207Z,8.55
2019-05-25T03:10:10.021Z,9.20
2019-05-25T03:12:39.241Z,9.30
2019-05-25T03:15:08.368Z,8.85
2019-05-25T03:17:37.101Z,8.73
2019-05-25T03:20:07.026Z,8.45
2019-05-25T03:22:35.756Z,8.58
2019-05-25T03:25:06.357Z,9.20
2019-05-25T03:27:35.072Z,9.35
2019-05-25T03:30:05.924Z,9.48
2019-05-25T03:32:34.622Z,9.83
2019-05-25T03:35:04.214Z,10.35
2019-05-25T03:37:32.962Z,10.38
2019-05-25T03:40:01.702Z,11.38
2019-05-25T03:42:30.455Z,11.95
2019-05-25T03:44:59.169Z,12.43
2019-05-25T03:47:27.909Z,12.60
2019-05-25T03:49:56.625Z,13.20
2019-05-25T03:52:25.413Z,14.58
2019-05-25T03:54:54.197Z,14.10
2019-05-25T03:57:22.930Z,14.47
2019-05-25T03:59:51.672Z,29.80
2019-05-25T04:02:20.409Z,14.23
2019-05-25T04:04:49.144Z,13.22
2019-05-25T04:07:17.858Z,29.75
2019-05-25T04:09:46.592Z,12.82
2019-05-25T04:12:15.325Z,17.15
2019-05-25T04:14:44.157Z,14.15
2019-05-25T04:17:12.875Z,13.40
2019-05-25T04:19:41.616Z,13.18
2019-05-25T04:22:10.703Z,12.73
2019-05-25T04:24:39.435Z,14.78
2019-05-25T04:27:08.268Z,13.38
2019-05-25T04:29:37.004Z,12.47
2019-05-25T04:32:05.718Z,12.58
2019-05-25T04:34:34.461Z,12.33
2019-05-25T04:37:03.194Z,12.28
2019-05-25T04:39:31.917Z,12.30
2019-05-25T04:42:00.650Z,11.70
2019-05-25T04:44:29.397Z,10.68
2019-05-25T04:46:58.125Z,11.95
2019-05-25T04:49:26.867Z,10.13
2019-05-25T04:51:55.664Z,10.88
2019-05-25T04:54:24.386Z,11.43
2019-05-25T04:56:53.120Z,11.35
2019-05-25T04:59:21.852Z,10.90
2019-05-25T05:01:50.617Z,11.43
2019-05-25T05:04:19.412Z,11.95
2019-05-25T05:06:48.190Z,11.00
2019-05-25T05:09:16.906Z,12.73
2019-05-25T05:11:45.630Z,13.70
2019-05-25T05:14:14.435Z,11.45
2019-05-25T05:16:43.154Z,12.70
2019-05-25T05:19:11.888Z,12.88
2019-05-25T05:21:40.619Z,13.48
2019-05-25T05:24:09.344Z,13.43
2019-05-25T05:26:54.219Z,12.95
2019-05-25T05:29:08.491Z,13.08
2019-05-25T05:31:37.210Z,13.98
2019-05-25T05:34:06.037Z,13.08
2019-05-25T05:36:35.457Z,12.43
2019-05-25T05:39:08.701Z,12.03
2019-05-25T05:41:40.440Z,11.73
2019-05-25T05:44:09.188Z,11.75
2019-05-25T05:46:38.784Z,12.40
2019-05-25T05:49:09.406Z,11.85
2019-05-25T05:51:38.232Z,13.18
2019-05-25T05:54:07.029Z,10.85
2019-05-25T05:56:35.755Z,12.35
2019-05-25T05:59:04.476Z,10.43
2019-05-25T06:01:33.240Z,10.60
2019-05-25T06:04:02.050Z,10.30
2019-05-25T06:06:30.965Z,9.55
2019-05-25T06:08:59.690Z,7.45
2019-05-25T06:11:28.436Z,8.68
2019-05-25T06:13:57.159Z,8.40
2019-05-25T06:16:25.886Z,6.90
2019-05-25T06:18:54.607Z,7.85
2019-05-25T06:21:23.443Z,7.42
2019-05-25T06:23:52.124Z,7.58
2019-05-25T06:26:20.870Z,8.10
2019-05-25T06:28:49.598Z,7.75
2019-05-25T06:31:18.461Z,7.70
2019-05-25T06:33:47.131Z,7.53
2019-05-25T06:36:16.298Z,6.70
2019-05-25T06:38:45.040Z,7.10
2019-05-25T06:41:13.926Z,6.35
2019-05-25T06:43:42.648Z,6.45
2019-05-25T06:46:11.384Z,5.97
2019-05-25T06:48:40.153Z,6.55
2019-05-25T06:51:08.873Z,7.62
2019-05-25T06:53:37.568Z,5.60
2019-05-25T06:56:06.298Z,5.58
2019-05-25T06:58:35.104Z,5.87
2019-05-25T07:01:04.526Z,6.17
2019-05-25T07:03:33.305Z,5.85
2019-05-25T07:06:02.121Z,6.12
2019-05-25T07:08:32.022Z,6.20
2019-05-25T07:11:00.851Z,6.50
2019-05-25T07:13:29.574Z,6.40
2019-05-25T07:15:58.346Z,5.92
2019-05-25T07:18:27.072Z,6.50
2019-05-25T07:20:55.801Z,6.47
2019-05-25T07:23:24.532Z,6.15
2019-05-25T07:25:54.988Z,6.20
2019-05-25T07:28:25.020Z,6.12
2019-05-25T07:30:57.024Z,7.35
2019-05-25T07:33:25.753Z,6.40
2019-05-25T07:35:54.657Z,6.67
2019-05-25T07:38:23.487Z,6.10
2019-05-25T07:40:52.209Z,6.62
2019-05-25T07:43:20.929Z,6.20
2019-05-25T07:45:49.707Z,6.22
2019-05-25T07:48:18.427Z,5.75
2019-05-25T07:50:47.121Z,5.97
2019-05-25T07:53:15.860Z,5.42
2019-05-25T07:55:44.574Z,5.50
2019-05-25T07:58:32.578Z,5.22
2019-05-25T08:01:02.644Z,5.80
2019-05-25T08:03:31.364Z,5.33
2019-05-25T08:06:01.554Z,5.12
2019-05-25T08:08:31.054Z,4.45
2019-05-25T08:10:59.876Z,9.58
2019-05-25T08:13:28.593Z,5.12
2019-05-25T08:15:57.414Z,4.80
2019-05-25T08:18:26.225Z,4.67
2019-05-25T08:20:55.108Z,4.03
2019-05-25T08:23:24.093Z,4.20
2019-05-25T08:25:52.809Z,4.22
2019-05-25T08:28:32.373Z,5.50
2019-05-25T08:30:52.061Z,4.83
2019-05-25T08:33:21.451Z,4.12
2019-05-25T08:35:50.169Z,3.87
2019-05-25T08:38:18.894Z,3.83
2019-05-25T08:40:47.613Z,3.60
2019-05-25T08:43:16.331Z,3.55
2019-05-25T08:45:45.077Z,3.02
2019-05-25T08:48:13.924Z,3.20
2019-05-25T08:50:42.727Z,2.85
2019-05-25T08:53:11.450Z,2.95
2019-05-25T08:55:40.312Z,2.67
2019-05-25T08:58:09.541Z,2.80
2019-05-25T09:00:38.403Z,2.55
2019-05-25T09:03:07.125Z,3.08
2019-05-25T09:05:35.853Z,3.62
2019-05-25T09:08:04.612Z,3.60
2019-05-25T09:10:33.374Z,4.30
2019-05-25T09:13:02.080Z,4.08
2019-05-25T09:15:31.456Z,3.45
2019-05-25T09:18:00.617Z,3.10
2019-05-25T09:20:31.545Z,3.15
2019-05-25T09:22:59.784Z,2.50
2019-05-25T09:25:28.586Z,2.80
2019-05-25T09:27:57.375Z,2.12
2019-05-25T09:30:26.181Z,2.60
2019-05-25T09:32:55.121Z,1.95
2019-05-25T09:35:23.904Z,2.15
2019-05-25T09:37:52.719Z,2.02
2019-05-25T09:40:22.999Z,1.57
2019-05-25T09:42:51.943Z,1.52
2019-05-25T09:45:20.779Z,1.82
2019-05-25T09:47:49.796Z,1.37
2019-05-25T09:50:18.994Z,1.20
2019-05-25T09:52:47.747Z,1.40
2019-05-25T09:55:17.058Z,1.15
2019-05-25T09:57:45.780Z,1.50
2019-05-25T10:00:15.820Z,1.22
2019-05-25T10:02:44.747Z,0.98
2019-05-25T10:05:14.257Z,1.02
2019-05-25T10:07:43.101Z,0.80
2019-05-25T10:10:12.371Z,1.15
2019-05-25T10:12:41.035Z,0.82
2019-05-25T10:15:10.112Z,1.15
2019-05-25T10:17:38.840Z,0.90
2019-05-25T10:20:09.911Z,0.90
2019-05-25T10:22:40.732Z,1.10
2019-05-25T10:25:11.312Z,1.25
2019-05-25T10:27:40.060Z,0.90
2019-05-25T10:30:10.389Z,0.98
2019-05-25T10:32:39.149Z,0.90
2019-05-25T10:35:08.481Z,0.93
2019-05-25T10:37:39.628Z,0.88
2019-05-25T10:40:09.671Z,0.82
2019-05-25T10:42:38.494Z,1.22
2019-05-25T10:45:08.418Z,0.90
2019-05-25T10:47:37.139Z,1.20
2019-05-25T10:50:11.905Z,1.00
2019-05-25T10:52:42.001Z,0.90
2019-05-25T10:55:12.680Z,1.00
2019-05-25T10:57:41.587Z,1.10
2019-05-25T11:00:11.775Z,0.80
2019-05-25T11:02:43.145Z,0.80
2019-05-25T11:05:15.028Z,0.82
2019-05-25T11:07:45.529Z,0.90
2019-05-25T11:10:14.252Z,0.72
2019-05-25T11:12:43.050Z,1.02
2019-05-25T11:15:12.440Z,0.68
2019-05-25T11:17:41.313Z,1.07
2019-05-25T11:20:11.505Z,0.80
2019-05-25T11:22:40.553Z,0.88
2019-05-25T11:25:09.873Z,0.90
2019-05-25T11:27:38.653Z,0.80
2019-05-25T11:30:09.878Z,1.35
2019-05-25T11:32:38.941Z,0.85
2019-05-25T11:35:08.170Z,0.85
2019-05-25T11:37:36.886Z,0.82
2019-05-25T11:40:08.440Z,0.70
2019-05-25T11:45:07.018Z,0.80
2019-05-25T11:47:35.744Z,0.80
2019-05-25T11:50:07.397Z,0.90
2019-05-25T11:52:36.205Z,0.75
2019-05-25T11:55:09.262Z,0.80
2019-05-25T11:57:38.087Z,1.40
2019-05-25T12:00:23.661Z,0.90
2019-05-25T12:02:40.112Z,0.93
2019-05-25T12:05:11.486Z,1.15
2019-05-25T12:07:43.773Z,0.60
2019-05-25T12:10:12.427Z,1.00
2019-05-25T12:12:41.100Z,0.85
2019-05-25T12:15:10.808Z,0.60
2019-05-25T12:17:39.562Z,0.70
2019-05-25T12:20:10.081Z,1.10
2019-05-25T12:22:38.888Z,0.80
2019-05-25T12:25:07.848Z,0.80
2019-05-25T12:27:36.735Z,0.70
2019-05-25T12:30:07.317Z,0.68
2019-05-25T12:32:36.121Z,0.93
2019-05-25T12:35:06.941Z,0.82
2019-05-25T12:37:35.666Z,0.90
2019-05-25T12:40:06.210Z,0.85
2019-05-25T12:42:35.012Z,0.88
2019-05-25T12:45:04.135Z,0.90
2019-05-25T12:47:33.823Z,1.22
2019-05-25T12:50:02.558Z,1.00
2019-05-25T12:52:31.278Z,1.30
2019-05-25T12:55:00.037Z,0.82
2019-05-25T12:57:28.763Z,0.90
2019-05-25T13:00:12.222Z,0.90
2019-05-25T13:02:27.888Z,1.45
2019-05-25T13:04:56.676Z,0.90
2019-05-25T13:07:25.501Z,0.70
2019-05-25T13:09:54.315Z,0.80
2019-05-25T13:12:23.037Z,0.93
2019-05-25T13:14:52.251Z,0.85
2019-05-25T13:17:21.976Z,0.88
2019-05-25T13:19:50.832Z,1.05
2019-05-25T13:22:19.793Z,1.45
2019-05-25T13:24:48.612Z,0.80
2019-05-25T13:27:17.332Z,0.88
2019-05-25T13:29:46.117Z,1.00
2019-05-25T13:32:14.837Z,0.90
2019-05-25T13:34:44.662Z,1.12
2019-05-25T13:37:13.750Z,0.95
2019-05-25T13:39:42.528Z,1.50
2019-05-25T13:42:11.272Z,1.07
2019-05-25T13:44:41.872Z,1.10
2019-05-25T13:47:10.547Z,1.20
2019-05-25T13:49:39.862Z,0.78
2019-05-25T13:52:08.583Z,0.75
2019-05-25T13:54:39.219Z,0.90
2019-05-25T13:57:07.679Z,0.90
2019-05-25T13:59:36.388Z,1.12
2019-05-25T14:02:05.347Z,1.00
2019-05-25T14:04:34.149Z,1.40
2019-05-25T14:07:02.890Z,1.40
2019-05-25T14:09:33.657Z,1.90
2019-05-25T14:12:02.497Z,1.30
2019-05-25T14:14:31.212Z,1.30
2019-05-25T14:17:00.144Z,1.47
2019-05-25T14:19:31.101Z,1.77
2019-05-25T14:22:01.137Z,1.32
2019-05-25T14:24:29.870Z,1.42
2019-05-25T14:26:58.617Z,1.10
2019-05-25T14:29:27.497Z,1.20
2019-05-25T14:31:56.341Z,1.42
2019-05-25T14:34:25.137Z,1.40
2019-05-25T14:36:53.921Z,1.10
2019-05-25T14:39:22.904Z,1.10
2019-05-25T14:41:51.714Z,1.22
2019-05-25T14:44:20.549Z,1.65
2019-05-25T14:46:49.312Z,1.50
2019-05-25T14:49:19.797Z,1.57
2019-05-25T14:51:48.529Z,1.42
2019-05-25T14:54:17.356Z,1.12
2019-05-25T14:56:46.063Z,1.30
2019-05-25T14:59:14.881Z,0.90
2019-05-25T15:01:43.677Z,1.25
2019-05-25T15:04:12.338Z,1.15
2019-05-25T15:06:42.763Z,1.77
2019-05-25T15:09:13.236Z,1.25
2019-05-25T15:11:41.974Z,1.40
2019-05-25T15:14:10.972Z,1.57
2019-05-25T15:16:39.934Z,1.20
2019-05-25T15:19:08.777Z,1.65
2019-05-25T15:21:37.725Z,1.10
2019-05-25T15:24:06.593Z,1.40
2019-05-25T15:26:35.612Z,1.30
2019-05-25T15:29:04.454Z,1.35
2019-05-25T15:31:33.452Z,1.47
2019-05-25T15:34:02.227Z,1.60
2019-05-25T15:36:31.085Z,1.42
2019-05-25T15:38:59.965Z,6.53
2019-05-25T15:41:28.774Z,1.30
2019-05-25T15:43:58.325Z,1.47
2019-05-25T15:46:27.079Z,1.80
2019-05-25T15:48:55.797Z,1.60
2019-05-25T15:51:24.548Z,1.47
2019-05-25T15:53:53.344Z,1.57
2019-05-25T15:56:22.080Z,1.42
2019-05-25T15:58:52.260Z,1.50
2019-05-25T16:01:21.055Z,1.22
2019-05-25T16:03:51.455Z,1.17
2019-05-25T16:06:23.865Z,5.55
2019-05-25T16:08:51.441Z,4.20
2019-05-25T16:11:20.381Z,1.15
2019-05-25T16:13:49.082Z,1.10
2019-05-25T16:16:17.880Z,1.30
2019-05-25T16:18:46.642Z,1.10
2019-05-25T16:21:17.860Z,1.45
2019-05-25T16:23:46.625Z,1.87
2019-05-25T16:26:15.511Z,1.90
2019-05-25T16:28:44.257Z,1.47
2019-05-25T16:31:13.141Z,1.87
2019-05-25T16:33:41.938Z,14.47
2019-05-25T16:36:10.828Z,1.82
2019-05-25T16:38:39.688Z,1.35
2019-05-25T16:41:08.618Z,1.75
2019-05-25T16:43:37.425Z,2.20
2019-05-25T16:46:06.244Z,2.92
2019-05-25T16:48:36.055Z,2.00
2019-05-25T16:51:04.837Z,1.80
2019-05-25T16:53:33.642Z,1.75
2019-05-25T16:56:02.365Z,2.12
2019-05-25T16:58:31.077Z,1.85
2019-05-25T17:01:00.322Z,1.80
2019-05-25T17:03:30.419Z,2.83
2019-05-25T17:05:59.317Z,2.02
2019-05-25T17:08:28.283Z,1.20
2019-05-25T17:10:57.050Z,1.10
2019-05-25T17:13:27.008Z,1.12
2019-05-25T17:15:56.311Z,1.50
2019-05-25T17:18:25.100Z,1.12
2019-05-25T17:20:53.876Z,1.00
2019-05-25T17:23:22.681Z,1.10
2019-05-25T17:25:51.388Z,1.20
2019-05-25T17:28:20.157Z,1.25
2019-05-25T17:30:49.175Z,1.17
2019-05-25T17:33:17.897Z,1.27
2019-05-25T17:35:46.725Z,0.98
2019-05-25T17:38:15.670Z,1.10
2019-05-25T17:40:44.529Z,1.10
2019-05-25T17:43:15.339Z,1.75
2019-05-25T17:45:44.064Z,1.55
2019-05-25T17:48:12.813Z,1.75
2019-05-25T17:50:41.540Z,1.22
2019-05-25T17:53:10.338Z,0.95
2019-05-25T17:55:39.142Z,1.02
2019-05-25T17:58:09.250Z,1.67
2019-05-25T18:00:40.902Z,1.25
2019-05-25T18:03:09.816Z,1.10
2019-05-25T18:05:38.665Z,1.40
2019-05-25T18:08:07.773Z,1.30
2019-05-25T18:10:51.303Z,1.30
2019-05-25T18:13:08.859Z,0.90
2019-05-25T18:15:37.581Z,1.30
2019-05-25T18:18:08.549Z,1.25
2019-05-25T18:20:37.218Z,1.42
2019-05-25T18:23:06.305Z,1.87
2019-05-25T18:25:36.266Z,1.60
2019-05-25T18:28:05.694Z,1.65
2019-05-25T18:30:34.506Z,1.50
2019-05-25T18:33:03.258Z,1.80
2019-05-25T18:35:31.965Z,1.37
2019-05-25T18:38:00.731Z,2.75
2019-05-25T18:40:29.633Z,2.62
2019-05-25T18:43:00.675Z,1.70
2019-05-25T18:45:29.570Z,1.40
2019-05-25T18:47:58.975Z,1.32
2019-05-25T18:50:27.851Z,1.45
2019-05-25T18:52:59.389Z,1.90
2019-05-25T18:55:28.764Z,1.90
2019-05-25T18:57:57.600Z,1.40
2019-05-25T19:00:27.063Z,1.30
2019-05-25T19:02:55.779Z,1.42
2019-05-25T19:05:26.211Z,1.50
2019-05-25T19:07:54.966Z,1.00
2019-05-25T19:10:24.110Z,1.10
2019-05-25T19:12:52.973Z,1.47
2019-05-25T19:15:22.214Z,1.10
2019-05-25T19:17:53.338Z,1.30
2019-05-25T19:20:22.539Z,1.50
2019-05-25T19:22:51.367Z,2.10
2019-05-25T19:25:20.231Z,1.60
2019-05-25T19:27:48.941Z,1.10
2019-05-25T19:30:19.258Z,1.10
2019-05-25T19:32:49.211Z,1.02
2019-05-25T19:35:20.047Z,1.15
2019-05-25T19:37:48.901Z,1.27
2019-05-25T19:40:17.882Z,1.30
2019-05-25T19:42:49.784Z,1.20
2019-05-25T19:45:17.966Z,1.60
2019-05-25T19:47:48.654Z,1.20
2019-05-25T19:50:17.410Z,1.12
2019-05-25T19:52:48.330Z,1.60
2019-05-25T19:55:17.635Z,1.80
2019-05-25T19:57:49.769Z,1.50
2019-05-25T20:00:18.661Z,1.50
2019-05-25T20:02:49.473Z,1.20
2019-05-25T20:05:18.620Z,1.20
2019-05-25T20:07:47.487Z,1.50
2019-05-25T20:10:16.407Z,1.30
2019-05-25T20:12:45.405Z,1.40
2019-05-25T20:15:14.409Z,1.40
2019-05-25T20:17:44.819Z,1.30
2019-05-25T20:20:14.244Z,1.10
2019-05-25T20:22:43.021Z,1.45
2019-05-25T20:25:12.118Z,1.30
2019-05-25T20:27:40.851Z,1.42
2019-05-25T20:30:10.467Z,1.50
2019-05-25T20:32:39.355Z,1.75
2019-05-25T20:35:08.469Z,1.40
2019-05-25T20:37:37.218Z,1.37
2019-05-25T20:40:07.972Z,1.10
2019-05-25T20:42:36.976Z,1.47
2019-05-25T20:45:07.780Z,1.40
2019-05-25T20:47:37.745Z,1.10
2019-05-25T20:50:10.281Z,1.50
2019-05-25T20:52:38.949Z,1.37
2019-05-25T20:55:08.203Z,1.80
2019-05-25T20:57:36.884Z,1.52
2019-05-25T21:00:08.616Z,1.65
2019-05-25T21:02:37.342Z,1.60
2019-05-25T21:05:07.107Z,1.40
2019-05-25T21:07:38.185Z,1.62
2019-05-25T21:10:10.008Z,1.40
2019-05-25T21:12:38.769Z,1.40
2019-05-25T21:15:08.109Z,3.42
2019-05-25T21:17:36.829Z,2.00
2019-05-25T21:20:06.754Z,1.57
2019-05-25T21:22:35.467Z,1.90
2019-05-25T21:25:06.403Z,1.22
2019-05-25T21:27:35.202Z,1.80
2019-05-25T21:30:04.921Z,1.37
2019-05-25T21:32:33.721Z,1.40
2019-05-25T21:35:02.429Z,1.30
2019-05-25T21:37:31.405Z,1.50
2019-05-25T21:40:00.196Z,1.40
2019-05-25T21:42:29.011Z,1.37
2019-05-25T21:44:57.720Z,1.50
2019-05-25T21:47:26.624Z,1.30
2019-05-25T21:49:55.482Z,1.50
2019-05-25T21:52:24.198Z,1.72
2019-05-25T21:54:52.982Z,1.25
2019-05-25T21:57:21.771Z,1.30
2019-05-25T21:59:50.492Z,1.52
2019-05-25T22:02:19.222Z,1.57
2019-05-25T22:04:47.936Z,1.67
2019-05-25T22:07:16.750Z,1.42
2019-05-25T22:09:45.660Z,1.77
2019-05-25T22:12:14.450Z,1.57
2019-05-25T22:14:43.177Z,1.42
2019-05-25T22:17:11.892Z,1.65
2019-05-25T22:19:40.736Z,1.55
2019-05-25T22:22:10.883Z,1.52
2019-05-25T22:24:39.652Z,1.92
2019-05-25T22:27:08.364Z,2.00
2019-05-25T22:29:37.105Z,1.82
2019-05-25T22:32:05.851Z,2.33
2019-05-25T22:34:34.560Z,1.52
2019-05-25T22:37:03.304Z,1.80
2019-05-25T22:39:32.290Z,1.72
2019-05-25T22:42:02.626Z,1.80
2019-05-25T22:44:31.388Z,1.60
2019-05-25T22:47:00.291Z,1.67
2019-05-25T22:49:29.120Z,1.70
2019-05-25T22:51:57.981Z,1.50
2019-05-25T22:54:26.838Z,1.80
2019-05-25T22:56:55.554Z,1.85
2019-05-25T22:59:24.796Z,1.92
2019-05-25T23:01:53.812Z,2.00
2019-05-25T23:04:22.460Z,1.87
2019-05-25T23:06:57.664Z,1.87
2019-05-25T23:09:21.809Z,2.08
2019-05-25T23:11:50.525Z,2.33
2019-05-25T23:14:19.237Z,1.90
2019-05-25T23:16:48.160Z,2.00
2019-05-25T23:19:18.121Z,1.90
2019-05-25T23:21:46.869Z,2.00
2019-05-25T23:24:15.683Z,2.40
2019-05-25T23:26:44.476Z,2.22
2019-05-25T23:29:13.250Z,2.02
2019-05-25T23:31:42.063Z,2.05
2019-05-25T23:34:10.830Z,2.22
2019-05-25T23:36:39.647Z,2.40
2019-05-25T23:39:08.375Z,2.35
2019-05-25T23:41:37.781Z,2.55
2019-05-25T23:44:06.513Z,2.40
2019-05-25T23:46:35.224Z,2.77
2019-05-25T23:49:04.132Z,2.40
2019-05-25T23:51:32.943Z,2.58
2019-05-25T23:54:01.664Z,3.05
2019-05-25T23:56:32.018Z,2.75
2019-05-25T23:59:01.098Z,3.52
